Time;durP1;ratioP1;P1;durP2;ratioP2;P2;SDS_P1;SDS_P2;PMS_P1;PMS_P2;Temp;Humidity;BMP_temperature;BMP_pressure;BME280_temperature;BME280_humidity;BME280_pressure;Samples;Min_cycle;Max_cycle;Signal;HPM_P1;HPM_P2
2021/04/16 00:00:31;;;;;;;10.98;9.68;;;;;;;;;;5052139;28;20017;-76
2021/04/16 00:02:57;;;;;;;12.27;8.88;;;;;;;;;;5052348;28;20433;-75
2021/04/16 00:05:23;;;;;;;10.60;8.75;;;;;;;;;;5052138;28;20032;-75
2021/04/16 00:07:49;;;;;;;11.98;9.52;;;;;;;;;;5052371;28;20083;-76
2021/04/16 00:10:20;;;;;;;11.25;9.32;;;;;;;;;;5051792;28;20472;-75
2021/04/16 00:12:45;;;;;;;12.60;9.52;;;;;;;;;;5054570;28;20079;-76
2021/04/16 00:15:16;;;;;;;11.18;9.23;;;;;;;;;;5072131;28;20033;-75
2021/04/16 00:17:41;;;;;;;13.68;9.98;;;;;;;;;;5070561;28;20032;-76
2021/04/16 00:20:11;;;;;;;11.43;9.57;;;;;;;;;;5072077;28;20082;-76
2021/04/16 00:22:37;;;;;;;10.18;8.40;;;;;;;;;;5071911;28;20484;-75
2021/04/16 00:25:05;;;;;;;11.20;8.48;;;;;;;;;;5071842;28;20017;-75
2021/04/16 00:27:31;;;;;;;9.75;8.27;;;;;;;;;;5071837;28;20488;-77
2021/04/16 00:29:56;;;;;;;10.15;8.57;;;;;;;;;;5072099;28;20017;-76
2021/04/16 00:32:22;;;;;;;10.50;8.95;;;;;;;;;;5071832;28;20089;-76
2021/04/16 00:34:47;;;;;;;9.88;8.88;;;;;;;;;;5071680;28;20078;-77
2021/04/16 00:37:12;;;;;;;12.65;9.18;;;;;;;;;;5072113;28;20025;-77
2021/04/16 00:39:38;;;;;;;10.57;8.80;;;;;;;;;;5071324;28;20077;-75
2021/04/16 00:42:04;;;;;;;10.90;9.00;;;;;;;;;;5071852;28;20048;-76
2021/04/16 00:44:29;;;;;;;9.40;8.35;;;;;;;;;;5053709;28;20025;-76
2021/04/16 00:47:01;;;;;;;12.77;8.88;;;;;;;;;;5072103;28;20020;-76
2021/04/16 00:49:29;;;;;;;11.80;8.52;;;;;;;;;;5053108;28;20507;-76
2021/04/16 00:51:58;;;;;;;10.30;8.70;;;;;;;;;;5057352;28;20062;-76
2021/04/16 00:54:35;;;;;;;11.15;8.77;;;;;;;;;;5071574;28;20020;-76
2021/04/16 00:57:01;;;;;;;9.98;8.35;;;;;;;;;;5071935;28;20016;-75
2021/04/16 00:59:31;;;;;;;9.60;7.95;;;;;;;;;;5073750;28;20051;-76
2021/04/16 01:01:59;;;;;;;10.20;8.40;;;;;;;;;;5075996;28;20552;-76
2021/04/16 01:04:26;;;;;;;10.73;8.70;;;;;;;;;;5075686;28;20028;-75
2021/04/16 01:06:52;;;;;;;10.07;8.52;;;;;;;;;;5075623;28;20400;-76
2021/04/16 01:09:18;;;;;;;11.07;8.40;;;;;;;;;;5057374;28;20029;-76
2021/04/16 01:11:43;;;;;;;9.07;8.18;;;;;;;;;;5075361;28;20114;-76
2021/04/16 01:14:10;;;;;;;11.32;8.13;;;;;;;;;;5075417;28;20052;-76
2021/04/16 01:16:36;;;;;;;10.02;8.75;;;;;;;;;;5075109;28;20028;-76
2021/04/16 01:19:07;;;;;;;9.65;8.00;;;;;;;;;;5068248;28;20013;-76
2021/04/16 01:21:40;;;;;;;8.63;7.82;;;;;;;;;;5055106;28;20036;-75
2021/04/16 01:24:19;;;;;;;10.00;8.77;;;;;;;;;;5055183;28;20071;-76
2021/04/16 01:26:45;;;;;;;9.30;7.95;;;;;;;;;;5054972;28;20075;-76
2021/04/16 01:29:11;;;;;;;11.80;7.68;;;;;;;;;;5037436;28;20060;-76
2021/04/16 01:31:47;;;;;;;10.63;8.43;;;;;;;;;;5030844;28;20092;-76
2021/04/16 01:34:24;;;;;;;9.95;8.10;;;;;;;;;;5038966;28;20021;-75
2021/04/16 01:36:52;;;;;;;9.10;8.00;;;;;;;;;;5054504;28;20076;-76
2021/04/16 01:39:19;;;;;;;9.27;8.23;;;;;;;;;;5037045;28;20049;-75
2021/04/16 01:41:45;;;;;;;10.98;8.60;;;;;;;;;;5054676;28;20032;-75
2021/04/16 01:44:13;;;;;;;11.85;8.88;;;;;;;;;;5054969;28;20045;-75
2021/04/16 01:46:59;;;;;;;10.73;8.60;;;;;;;;;;5054568;28;20108;-76
2021/04/16 01:49:30;;;;;;;11.13;9.07;;;;;;;;;;5054312;28;20045;-75
2021/04/16 01:51:56;;;;;;;11.73;8.68;;;;;;;;;;5036243;28;20029;-76
2021/04/16 01:54:32;;;;;;;12.35;9.18;;;;;;;;;;5054675;28;20025;-75
2021/04/16 01:57:13;;;;;;;9.00;8.10;;;;;;;;;;5036812;28;20036;-76
2021/04/16 01:59:40;;;;;;;11.02;8.75;;;;;;;;;;5054719;28;20532;-76
2021/04/16 02:02:09;;;;;;;9.35;8.40;;;;;;;;;;5053565;28;20060;-75
2021/04/16 02:04:35;;;;;;;9.77;8.13;;;;;;;;;;5054183;28;20543;-75
2021/04/16 02:07:01;;;;;;;9.27;8.18;;;;;;;;;;5054187;28;20033;-75
2021/04/16 02:09:29;;;;;;;11.60;8.82;;;;;;;;;;5054248;28;20457;-75
2021/04/16 02:11:55;;;;;;;9.77;8.80;;;;;;;;;;5054322;28;20025;-75
2021/04/16 02:14:23;;;;;;;11.10;8.70;;;;;;;;;;5054058;28;20125;-75
2021/04/16 02:16:54;;;;;;;9.77;8.70;;;;;;;;;;5053962;28;20798;-76
2021/04/16 02:19:20;;;;;;;11.13;9.10;;;;;;;;;;5037021;28;20112;-75
2021/04/16 02:21:45;;;;;;;10.90;8.80;;;;;;;;;;5033787;28;20123;-76
2021/04/16 02:24:11;;;;;;;10.65;8.93;;;;;;;;;;5034175;28;20025;-77
2021/04/16 02:26:38;;;;;;;10.52;7.78;;;;;;;;;;5033361;28;20559;-77
2021/04/16 02:29:06;;;;;;;9.50;8.32;;;;;;;;;;5034091;28;20029;-76
2021/04/16 02:31:32;;;;;;;9.25;8.25;;;;;;;;;;5039170;28;20052;-76
2021/04/16 02:33:57;;;;;;;11.48;8.30;;;;;;;;;;5054031;28;20032;-76
2021/04/16 02:36:24;;;;;;;8.98;8.07;;;;;;;;;;5054224;28;20017;-76
2021/04/16 02:38:51;;;;;;;9.65;8.10;;;;;;;;;;5035727;28;20052;-76
2021/04/16 02:41:17;;;;;;;10.00;8.48;;;;;;;;;;5053907;28;20468;-76
2021/04/16 02:43:43;;;;;;;9.32;8.35;;;;;;;;;;5035728;28;20056;-76
2021/04/16 02:46:08;;;;;;;9.55;8.48;;;;;;;;;;5035992;28;20104;-76
2021/04/16 02:48:33;;;;;;;11.50;8.55;;;;;;;;;;5062437;28;20024;-77
2021/04/16 02:50:59;;;;;;;9.52;8.52;;;;;;;;;;5073223;28;20063;-77
2021/04/16 02:53:24;;;;;;;10.15;7.88;;;;;;;;;;5073728;28;20025;-75
2021/04/16 02:55:50;;;;;;;9.10;8.10;;;;;;;;;;5073427;28;20063;-76
2021/04/16 02:58:15;;;;;;;9.35;7.80;;;;;;;;;;5073658;28;20311;-76
2021/04/16 03:00:41;;;;;;;10.85;8.85;;;;;;;;;;5073097;28;20024;-76
2021/04/16 03:03:06;;;;;;;11.00;8.30;;;;;;;;;;5073445;28;20495;-75
2021/04/16 03:05:32;;;;;;;11.52;8.35;;;;;;;;;;5072995;28;20384;-76
2021/04/16 03:07:57;;;;;;;10.52;8.43;;;;;;;;;;5073135;28;20020;-75
2021/04/16 03:10:30;;;;;;;10.93;9.10;;;;;;;;;;5073298;28;20442;-76
2021/04/16 03:12:56;;;;;;;12.75;9.25;;;;;;;;;;5054916;28;20031;-75
2021/04/16 03:15:21;;;;;;;9.90;8.75;;;;;;;;;;5073217;28;20028;-76
2021/04/16 03:17:47;;;;;;;10.80;8.90;;;;;;;;;;5066673;28;20029;-76
2021/04/16 03:20:13;;;;;;;10.40;8.95;;;;;;;;;;5053084;28;20534;-76
2021/04/16 03:22:39;;;;;;;9.80;8.80;;;;;;;;;;5052263;28;20078;-76
2021/04/16 03:25:07;;;;;;;9.40;8.40;;;;;;;;;;5053026;28;20020;-76
2021/04/16 03:27:32;;;;;;;10.18;9.18;;;;;;;;;;5052958;28;20430;-76
2021/04/16 03:29:58;;;;;;;10.98;9.07;;;;;;;;;;5034681;28;20025;-75
2021/04/16 03:32:24;;;;;;;10.80;9.00;;;;;;;;;;5039965;28;20183;-77
2021/04/16 03:34:49;;;;;;;10.73;8.75;;;;;;;;;;5032648;28;20040;-76
2021/04/16 03:37:14;;;;;;;11.45;9.48;;;;;;;;;;5015233;28;20025;-75
2021/04/16 03:39:40;;;;;;;9.82;8.80;;;;;;;;;;5014847;28;20441;-76
2021/04/16 03:42:06;;;;;;;9.45;8.45;;;;;;;;;;5014866;28;20080;-76
2021/04/16 03:44:32;;;;;;;10.63;8.95;;;;;;;;;;5032865;28;20037;-76
2021/04/16 03:46:57;;;;;;;11.00;8.70;;;;;;;;;;5031983;28;20021;-76
2021/04/16 03:49:23;;;;;;;9.82;8.77;;;;;;;;;;5033731;28;20025;-76
2021/04/16 03:51:54;;;;;;;9.07;8.18;;;;;;;;;;5043417;28;20026;-77
2021/04/16 03:54:20;;;;;;;;;;;;;;;;;;5033132;28;20032;-76
2021/04/16 03:56:46;;;;;;;10.77;8.85;;;;;;;;;;5032471;28;20302;-76
2021/04/16 03:59:12;;;;;;;10.38;8.93;;;;;;;;;;5032652;28;20029;-76
2021/04/16 04:01:38;;;;;;;9.73;8.50;;;;;;;;;;5032258;28;20033;-76
2021/04/16 04:04:04;;;;;;;9.82;8.82;;;;;;;;;;5032031;28;20025;-77
2021/04/16 04:06:29;;;;;;;11.75;9.18;;;;;;;;;;5032433;28;20071;-76
2021/04/16 04:08:55;;;;;;;11.60;9.23;;;;;;;;;;5014304;28;20112;-76
2021/04/16 04:11:21;;;;;;;11.15;9.02;;;;;;;;;;5032477;28;20033;-77
2021/04/16 04:13:46;;;;;;;9.85;8.48;;;;;;;;;;5042828;28;20480;-77
2021/04/16 04:16:11;;;;;;;10.52;8.75;;;;;;;;;;5052231;28;20048;-76
2021/04/16 04:18:37;;;;;;;10.23;8.68;;;;;;;;;;5028451;28;20023;-76
2021/04/16 04:21:03;;;;;;;12.52;9.18;;;;;;;;;;5052347;28;20021;-76
2021/04/16 04:23:29;;;;;;;9.80;8.80;;;;;;;;;;5052223;28;20024;-76
2021/04/16 04:25:54;;;;;;;10.52;8.68;;;;;;;;;;5051346;28;20469;-76
2021/04/16 04:28:20;;;;;;;9.82;8.80;;;;;;;;;;5052192;28;20044;-76
2021/04/16 04:30:46;;;;;;;9.73;8.73;;;;;;;;;;5051796;28;20523;-76
2021/04/16 04:33:11;;;;;;;9.70;8.68;;;;;;;;;;5033963;28;20067;-76
2021/04/16 04:35:37;;;;;;;11.95;8.57;;;;;;;;;;5034119;28;20120;-77
2021/04/16 04:38:04;;;;;;;12.68;9.07;;;;;;;;;;5051662;28;20037;-76
2021/04/16 04:40:30;;;;;;;10.18;9.02;;;;;;;;;;5051892;28;20032;-77
2021/04/16 04:42:56;;;;;;;10.27;8.77;;;;;;;;;;5051670;28;20044;-77
2021/04/16 04:45:23;;;;;;;9.73;8.40;;;;;;;;;;5051599;28;20048;-76
2021/04/16 04:47:49;;;;;;;10.00;8.55;;;;;;;;;;5033111;28;20048;-76
2021/04/16 04:50:14;;;;;;;11.35;8.20;;;;;;;;;;5051586;28;20060;-76
2021/04/16 04:52:41;;;;;;;11.85;9.13;;;;;;;;;;5051864;28;20025;-76
2021/04/16 04:55:11;;;;;;;11.55;8.93;;;;;;;;;;5051496;28;20392;-75
2021/04/16 04:57:37;;;;;;;11.23;9.10;;;;;;;;;;5051760;28;20455;-76
2021/04/16 05:00:05;;;;;;;11.80;8.93;;;;;;;;;;5051076;28;20020;-76
2021/04/16 05:02:31;;;;;;;11.40;8.90;;;;;;;;;;5051837;28;20032;-76
2021/04/16 05:04:57;;;;;;;8.80;7.88;;;;;;;;;;5033535;28;20021;-75
2021/04/16 05:07:22;;;;;;;11.63;8.95;;;;;;;;;;5051564;28;20021;-76
2021/04/16 05:09:48;;;;;;;11.20;9.32;;;;;;;;;;5051808;28;20055;-76
2021/04/16 05:12:13;;;;;;;11.02;9.07;;;;;;;;;;5051397;28;20021;-77
2021/04/16 05:14:39;;;;;;;9.80;8.77;;;;;;;;;;5051064;28;20075;-76
2021/04/16 05:17:07;;;;;;;11.48;8.85;;;;;;;;;;5050812;28;20025;-77
2021/04/16 05:19:33;;;;;;;10.45;9.10;;;;;;;;;;5031619;28;20029;-76
2021/04/16 05:22:03;;;;;;;10.88;9.40;;;;;;;;;;5031412;28;20026;-76
2021/04/16 05:24:32;;;;;;;13.48;9.57;;;;;;;;;;5031759;28;20025;-76
2021/04/16 05:27:02;;;;;;;11.40;9.18;;;;;;;;;;5031541;28;20033;-77
2021/04/16 05:29:28;;;;;;;11.23;9.20;;;;;;;;;;5031354;28;20021;-77
2021/04/16 05:31:54;;;;;;;13.38;9.90;;;;;;;;;;5040013;28;20287;-77
2021/04/16 05:34:19;;;;;;;11.90;9.95;;;;;;;;;;5051508;28;20083;-76
2021/04/16 05:36:45;;;;;;;12.15;9.50;;;;;;;;;;5051344;28;20021;-76
2021/04/16 05:39:10;;;;;;;14.25;10.95;;;;;;;;;;5051326;28;20049;-76
2021/04/16 05:41:36;;;;;;;15.95;12.20;;;;;;;;;;5051646;28;20558;-77
2021/04/16 05:44:01;;;;;;;16.63;12.73;;;;;;;;;;5050880;28;20025;-76
2021/04/16 05:46:27;;;;;;;16.60;12.43;;;;;;;;;;5054891;28;20025;-76
2021/04/16 05:48:52;;;;;;;13.43;11.70;;;;;;;;;;5054799;28;20025;-76
2021/04/16 05:51:17;;;;;;;15.25;10.65;;;;;;;;;;5055684;28;20039;-76
2021/04/16 05:53:43;;;;;;;14.98;10.60;;;;;;;;;;5063842;28;20032;-76
2021/04/16 05:56:08;;;;;;;15.05;11.20;;;;;;;;;;5068789;28;20024;-75
2021/04/16 05:58:34;;;;;;;14.60;11.40;;;;;;;;;;5059776;28;20546;-76
2021/04/16 06:01:00;;;;;;;14.32;11.00;;;;;;;;;;5062400;28;20021;-76
2021/04/16 06:03:25;;;;;;;13.27;11.80;;;;;;;;;;5062823;28;20021;-75
2021/04/16 06:05:51;;;;;;;13.77;11.40;;;;;;;;;;5051845;28;20025;-76
2021/04/16 06:08:19;;;;;;;15.45;12.13;;;;;;;;;;5043388;28;20039;-75
2021/04/16 06:10:45;;;;;;;13.35;11.68;;;;;;;;;;5073273;28;20047;-75
2021/04/16 06:13:11;;;;;;;15.82;11.70;;;;;;;;;;5073180;28;20020;-76
2021/04/16 06:15:36;;;;;;;12.90;10.52;;;;;;;;;;5073356;28;20028;-75
2021/04/16 06:18:02;;;;;;;14.77;8.88;;;;;;;;;;5057360;28;20496;-75
2021/04/16 06:20:28;;;;;;;10.95;8.38;;;;;;;;;;5057482;28;20453;-77
2021/04/16 06:22:55;;;;;;;10.35;8.15;;;;;;;;;;5066944;28;20431;-76
2021/04/16 06:25:25;;;;;;;13.38;8.38;;;;;;;;;;5063064;28;20021;-76
2021/04/16 06:27:51;;;;;;;8.73;7.82;;;;;;;;;;5041566;28;20489;-75
2021/04/16 06:30:19;;;;;;;10.40;8.10;;;;;;;;;;5052080;28;20112;-76
2021/04/16 06:32:46;;;;;;;11.77;8.13;;;;;;;;;;5054024;28;20045;-76
2021/04/16 06:35:14;;;;;;;11.15;8.30;;;;;;;;;;5069947;28;20035;-76
2021/04/16 06:37:40;;;;;;;8.90;7.88;;;;;;;;;;5040104;28;20498;-76
2021/04/16 06:40:06;;;;;;;10.23;8.05;;;;;;;;;;5073135;28;20066;-76
2021/04/16 06:42:33;;;;;;;11.20;8.10;;;;;;;;;;5072202;28;20473;-76
2021/04/16 06:45:16;;;;;;;8.68;7.47;;;;;;;;;;5063455;28;20025;-76
2021/04/16 06:47:52;;;;;;;8.32;7.22;;;;;;;;;;5060642;28;20039;-76
2021/04/16 06:50:19;;;;;;;11.57;7.57;;;;;;;;;;5060499;28;20485;-76
2021/04/16 06:52:51;;;;;;;9.70;7.65;;;;;;;;;;5061036;28;20029;-77
2021/04/16 06:55:55;;;;;;;10.18;7.68;;;;;;;;;;5066679;28;20032;-75
2021/04/16 06:58:30;;;;;;;9.20;7.80;;;;;;;;;;5062969;28;20027;-76
2021/04/16 07:01:14;;;;;;;8.98;7.65;;;;;;;;;;5072820;28;20016;-75
2021/04/16 07:03:46;;;;;;;8.63;7.70;;;;;;;;;;5048829;28;20450;-75
2021/04/16 07:06:27;;;;;;;11.70;7.78;;;;;;;;;;5065150;28;20495;-76
2021/04/16 07:08:52;;;;;;;8.65;7.75;;;;;;;;;;5066726;28;20035;-75
2021/04/16 07:11:25;;;;;;;10.27;7.65;;;;;;;;;;5071451;28;20396;-75
2021/04/16 07:13:52;;;;;;;10.43;8.50;;;;;;;;;;5064809;28;20077;-75
2021/04/16 07:16:20;;;;;;;10.07;8.20;;;;;;;;;;5052298;28;20138;-75
2021/04/16 07:18:50;;;;;;;9.38;7.72;;;;;;;;;;5053772;28;20527;-75
2021/04/16 07:21:20;;;;;;;10.45;8.57;;;;;;;;;;5064947;28;20028;-76
2021/04/16 07:24:00;;;;;;;10.18;7.90;;;;;;;;;;5065354;28;20034;-76
2021/04/16 07:26:42;;;;;;;9.75;8.02;;;;;;;;;;5053748;28;20021;-75
2021/04/16 07:29:13;;;;;;;11.13;8.00;;;;;;;;;;5063742;28;20020;-75
2021/04/16 07:31:53;;;;;;;9.73;7.85;;;;;;;;;;5056820;28;20049;-76
2021/04/16 07:34:28;;;;;;;10.52;8.25;;;;;;;;;;5048631;28;20069;-75
2021/04/16 07:36:55;;;;;;;10.65;7.93;;;;;;;;;;5017786;28;20180;-76
2021/04/16 07:39:32;;;;;;;9.00;7.72;;;;;;;;;;5047233;28;20532;-75
2021/04/16 07:42:10;;;;;;;9.80;8.10;;;;;;;;;;5045874;28;20051;-75
2021/04/16 07:44:39;;;;;;;15.07;10.57;;;;;;;;;;5038398;28;20025;-75
2021/04/16 07:47:21;;;;;;;10.02;8.48;;;;;;;;;;5023048;28;20040;-76
2021/04/16 07:50:07;;;;;;;10.18;8.13;;;;;;;;;;5035654;28;20449;-76
2021/04/16 07:52:35;;;;;;;12.27;8.52;;;;;;;;;;5031857;28;20112;-76
2021/04/16 07:55:42;;;;;;;9.80;8.80;;;;;;;;;;5038643;28;20385;-76
2021/04/16 07:58:14;;;;;;;10.05;8.57;;;;;;;;;;5026805;28;20392;-76
2021/04/16 08:00:46;;;;;;;10.75;8.50;;;;;;;;;;5043598;28;20035;-76
2021/04/16 08:03:19;;;;;;;10.15;8.80;;;;;;;;;;5038777;28;20504;-77
2021/04/16 08:05:46;;;;;;;12.25;9.02;;;;;;;;;;5044866;28;20037;-76
2021/04/16 08:08:18;;;;;;;9.68;8.57;;;;;;;;;;5026686;28;20036;-77
2021/04/16 08:10:45;;;;;;;11.27;8.40;;;;;;;;;;5035987;28;20504;-76
2021/04/16 08:13:24;;;;;;;10.90;8.00;;;;;;;;;;5049309;28;20044;-76
2021/04/16 08:15:51;;;;;;;11.25;8.68;;;;;;;;;;5049130;28;20392;-75
2021/04/16 08:18:30;;;;;;;10.27;8.35;;;;;;;;;;5039625;28;20025;-77
2021/04/16 08:21:02;;;;;;;12.07;9.60;;;;;;;;;;5040071;28;20028;-75
2021/04/16 08:23:35;;;;;;;9.70;8.27;;;;;;;;;;5036970;28;20075;-75
2021/04/16 08:26:03;;;;;;;11.60;8.77;;;;;;;;;;5043130;28;20408;-75
2021/04/16 08:28:45;;;;;;;11.50;8.63;;;;;;;;;;5039559;28;20105;-76
2021/04/16 08:31:15;;;;;;;9.98;8.85;;;;;;;;;;5052611;28;20532;-76
2021/04/16 08:33:45;;;;;;;9.65;8.52;;;;;;;;;;5051758;28;20420;-76
2021/04/16 08:36:31;;;;;;;10.80;8.27;;;;;;;;;;5041272;28;20044;-76
2021/04/16 08:39:18;;;;;;;12.15;8.90;;;;;;;;;;5069406;28;20036;-76
2021/04/16 08:42:12;;;;;;;11.00;8.73;;;;;;;;;;5034105;28;20064;-76
2021/04/16 08:44:55;;;;;;;9.32;8.25;;;;;;;;;;5047270;28;20111;-76
2021/04/16 08:47:26;;;;;;;10.52;8.68;;;;;;;;;;5067582;28;20031;-76
2021/04/16 08:49:58;;;;;;;9.25;8.32;;;;;;;;;;5061553;28;20120;-76
2021/04/16 08:52:29;;;;;;;11.30;8.90;;;;;;;;;;5051744;28;20037;-76
2021/04/16 08:55:06;;;;;;;11.60;8.75;;;;;;;;;;5056873;28;20060;-76
2021/04/16 08:57:40;;;;;;;10.27;9.23;;;;;;;;;;5059532;28;20032;-76
2021/04/16 09:00:12;;;;;;;10.60;8.48;;;;;;;;;;5058809;28;20036;-76
2021/04/16 09:02:52;;;;;;;10.82;9.27;;;;;;;;;;5040225;28;20447;-76
2021/04/16 09:05:21;;;;;;;9.25;8.20;;;;;;;;;;5059726;28;20021;-76
2021/04/16 09:08:09;;;;;;;12.75;9.00;;;;;;;;;;5061501;28;20058;-75
2021/04/16 09:10:39;;;;;;;12.95;9.23;;;;;;;;;;5059066;28;20025;-76
2021/04/16 09:13:06;;;;;;;11.07;8.93;;;;;;;;;;5060539;28;20047;-76
2021/04/16 09:15:35;;;;;;;8.90;8.00;;;;;;;;;;5053658;28;20042;-77
2021/04/16 09:18:00;;;;;;;11.85;8.48;;;;;;;;;;5057126;28;20024;-76
2021/04/16 09:20:49;;;;;;;12.07;8.52;;;;;;;;;;5064563;28;20069;-75
2021/04/16 09:23:30;;;;;;;12.27;9.15;;;;;;;;;;4973440;28;20089;-75
2021/04/16 09:25:56;;;;;;;10.02;8.88;;;;;;;;;;4968846;28;20582;-76
2021/04/16 09:28:22;;;;;;;12.65;9.05;;;;;;;;;;4964091;28;20057;-77
2021/04/16 09:31:03;;;;;;;12.25;8.68;;;;;;;;;;4966879;28;20113;-75
2021/04/16 09:33:38;;;;;;;10.82;8.70;;;;;;;;;;4963870;28;20571;-76
2021/04/16 09:36:08;;;;;;;12.13;9.27;;;;;;;;;;4964913;28;20085;-76
2021/04/16 09:38:52;;;;;;;9.93;8.20;;;;;;;;;;4967586;28;20393;-77
2021/04/16 09:41:25;;;;;;;12.07;9.35;;;;;;;;;;4965298;28;20083;-77
2021/04/16 09:43:59;;;;;;;15.90;9.88;;;;;;;;;;4966580;28;20031;-76
2021/04/16 09:46:31;;;;;;;9.52;8.52;;;;;;;;;;4958037;28;20055;-76
2021/04/16 09:49:12;;;;;;;11.48;9.30;;;;;;;;;;4968807;28;20506;-76
2021/04/16 09:51:42;;;;;;;11.13;9.10;;;;;;;;;;4962120;28;20023;-76
2021/04/16 09:54:08;;;;;;;9.75;8.60;;;;;;;;;;4959683;28;20039;-76
2021/04/16 09:56:36;;;;;;;12.55;8.75;;;;;;;;;;4968826;28;20027;-76
2021/04/16 09:59:32;;;;;;;9.90;8.90;;;;;;;;;;4965042;28;20034;-75
2021/04/16 10:02:13;;;;;;;14.05;12.57;;;;;;;;;;5060118;28;20021;-76
2021/04/16 10:05:18;;;;;;;18.48;15.65;;;;;;;;;;5036661;28;20098;-76
2021/04/16 10:07:49;;;;;;;50.55;44.45;;;;;;;;;;5064480;28;20023;-76
2021/04/16 10:10:35;;;;;;;10.32;9.15;;;;;;;;;;5061192;28;20027;-76
2021/04/16 10:13:16;;;;;;;13.77;9.98;;;;;;;;;;5056594;28;20052;-75
2021/04/16 10:15:45;;;;;;;12.95;10.13;;;;;;;;;;5053340;28;20028;-75
2021/04/16 10:18:19;;;;;;;11.40;8.63;;;;;;;;;;5065834;28;20028;-75
2021/04/16 10:21:03;;;;;;;10.25;8.88;;;;;;;;;;5071194;28;20029;-75
2021/04/16 10:23:33;;;;;;;13.10;9.30;;;;;;;;;;5059849;28;20021;-75
2021/04/16 10:52:18;;;;;;;10.98;9.88;;;;;;;;;;4976086;28;20045;-76
2021/04/16 10:55:46;;;;;;;10.40;8.95;;;;;;;;;;4970910;28;20041;-75
2021/04/16 12:41:21;;;;;;;5.55;4.05;;;;;;;;;;4974315;28;20065;-77
2021/04/16 12:43:48;;;;;;;8.13;6.57;;;;;;;;;;4987275;28;20042;-75
2021/04/16 12:46:19;;;;;;;8.43;5.82;;;;;;;;;;4996223;28;20533;-76
2021/04/16 12:48:45;;;;;;;7.38;6.22;;;;;;;;;;5046464;28;20032;-76
2021/04/16 12:51:12;;;;;;;8.75;5.65;;;;;;;;;;5037804;28;20033;-77
2021/04/16 12:53:38;;;;;;;5.78;5.10;;;;;;;;;;5034873;28;20123;-77
2021/04/16 12:56:06;;;;;;;9.38;5.85;;;;;;;;;;5057072;28;20024;-76
2021/04/16 12:58:35;;;;;;;7.18;5.18;;;;;;;;;;5055785;28;20047;-76
2021/04/16 13:01:02;;;;;;;4.35;3.13;;;;;;;;;;5056430;28;20047;-76
2021/04/16 13:03:35;;;;;;;4.22;3.55;;;;;;;;;;5054512;28;20120;-76
2021/04/16 13:06:01;;;;;;;6.45;4.50;;;;;;;;;;5050324;28;20527;-76
2021/04/16 13:08:26;;;;;;;6.88;4.90;;;;;;;;;;5035757;28;20108;-76
2021/04/16 13:10:52;;;;;;;6.35;4.80;;;;;;;;;;5034869;28;20112;-76
2021/04/16 13:13:18;;;;;;;5.65;4.85;;;;;;;;;;5042083;28;20504;-77
2021/04/16 13:15:43;;;;;;;10.90;9.23;;;;;;;;;;5055731;28;20095;-76
2021/04/16 13:18:26;;;;;;;8.55;6.75;;;;;;;;;;5055825;28;20347;-76
2021/04/16 13:20:51;;;;;;;8.20;6.28;;;;;;;;;;5045565;28;20458;-76
2021/04/16 13:23:17;;;;;;;7.30;6.53;;;;;;;;;;5035681;28;20083;-77
2021/04/16 13:25:44;;;;;;;7.00;6.10;;;;;;;;;;5035930;28;20116;-75
2021/04/16 13:28:10;;;;;;;8.10;6.38;;;;;;;;;;5034547;28;20552;-76
2021/04/16 13:30:35;;;;;;;8.00;6.28;;;;;;;;;;5039617;28;20040;-76
2021/04/16 13:33:06;;;;;;;8.15;6.10;;;;;;;;;;5046726;28;20060;-76
2021/04/16 13:35:37;;;;;;;7.80;5.90;;;;;;;;;;5055141;28;20037;-76
2021/04/16 13:38:08;;;;;;;7.15;6.38;;;;;;;;;;5055325;28;20029;-76
2021/04/16 13:40:37;;;;;;;9.10;6.03;;;;;;;;;;5055356;28;20025;-76
2021/04/16 13:43:02;;;;;;;13.00;10.93;;;;;;;;;;5055402;28;20025;-76
2021/04/16 13:45:28;;;;;;;7.43;6.60;;;;;;;;;;5053747;28;20030;-78
2021/04/16 13:47:54;;;;;;;9.07;6.32;;;;;;;;;;5055254;28;20047;-76
2021/04/16 13:50:19;;;;;;;19.02;16.90;;;;;;;;;;5055133;28;20500;-76
2021/04/16 13:52:45;;;;;;;8.18;6.32;;;;;;;;;;5054926;28;20025;-76
2021/04/16 13:55:12;;;;;;;8.38;6.53;;;;;;;;;;5055290;28;20028;-76
2021/04/16 13:57:39;;;;;;;7.18;5.90;;;;;;;;;;5036457;28;20115;-76
2021/04/16 14:00:06;;;;;;;7.32;5.93;;;;;;;;;;5043992;28;20021;-77
2021/04/16 14:02:36;;;;;;;8.45;6.57;;;;;;;;;;5034184;28;20076;-76
2021/04/16 14:05:05;;;;;;;8.30;7.15;;;;;;;;;;5049236;28;20028;-76
2021/04/16 14:07:30;;;;;;;8.50;7.18;;;;;;;;;;5054448;28;20484;-76
2021/04/16 14:09:56;;;;;;;11.95;7.10;;;;;;;;;;5043869;28;20028;-76
2021/04/16 14:12:21;;;;;;;8.57;7.28;;;;;;;;;;5053781;28;20032;-77
2021/04/16 14:14:47;;;;;;;9.65;7.63;;;;;;;;;;5054147;28;20025;-76
2021/04/16 14:17:25;;;;;;;9.85;8.65;;;;;;;;;;5036689;28;20043;-76
2021/04/16 14:20:00;;;;;;;11.65;9.77;;;;;;;;;;5051088;28;20033;-77
2021/04/16 14:22:30;;;;;;;9.20;7.32;;;;;;;;;;5034773;28;20060;-76
2021/04/16 14:24:56;;;;;;;11.50;7.88;;;;;;;;;;5035258;28;20021;-75
2021/04/16 14:27:22;;;;;;;7.97;7.15;;;;;;;;;;5038608;28;20056;-76
2021/04/16 14:29:48;;;;;;;9.80;7.60;;;;;;;;;;5053292;28;20071;-76
2021/04/16 14:32:15;;;;;;;9.85;6.78;;;;;;;;;;5053809;28;20065;-76
2021/04/16 14:34:41;;;;;;;18.58;16.70;;;;;;;;;;5054217;28;20041;-76
2021/04/16 14:37:07;;;;;;;8.65;7.45;;;;;;;;;;5054539;28;20032;-77
2021/04/16 14:39:32;;;;;;;11.32;10.15;;;;;;;;;;5053211;28;20021;-76
2021/04/16 14:42:00;;;;;;;29.70;26.90;;;;;;;;;;5053877;28;20389;-76
2021/04/16 14:44:26;;;;;;;8.57;7.68;;;;;;;;;;5057659;28;20027;-76
2021/04/16 14:46:53;;;;;;;9.90;8.30;;;;;;;;;;5073894;28;20028;-75
2021/04/16 14:49:24;;;;;;;9.50;7.60;;;;;;;;;;5073970;28;20134;-76
2021/04/16 14:51:50;;;;;;;10.10;8.15;;;;;;;;;;5068553;28;20021;-75
2021/04/16 14:54:23;;;;;;;13.65;11.98;;;;;;;;;;5073779;28;20107;-75
2021/04/16 14:56:48;;;;;;;8.93;7.90;;;;;;;;;;5064878;28;20043;-75
2021/04/16 14:59:22;;;;;;;9.15;7.70;;;;;;;;;;5053947;28;20025;-76
2021/04/16 15:01:50;;;;;;;9.02;8.13;;;;;;;;;;5063050;28;20073;-76
2021/04/16 15:04:16;;;;;;;9.32;8.32;;;;;;;;;;5060683;28;20104;-76
2021/04/16 15:06:41;;;;;;;11.77;7.80;;;;;;;;;;5062252;28;20108;-76
2021/04/16 15:09:09;;;;;;;11.68;7.75;;;;;;;;;;5062419;28;20350;-76
2021/04/16 15:11:46;;;;;;;12.07;9.02;;;;;;;;;;5051419;28;20032;-76
2021/04/16 15:14:15;;;;;;;9.65;8.02;;;;;;;;;;5063709;28;20032;-77
2021/04/16 15:16:43;;;;;;;11.10;8.18;;;;;;;;;;5061669;28;20075;-77
2021/04/16 15:19:11;;;;;;;15.10;11.00;;;;;;;;;;5059114;28;20024;-75
2021/04/16 15:21:37;;;;;;;13.77;10.65;;;;;;;;;;5054569;28;20086;-76
2021/04/16 15:24:02;;;;;;;9.02;7.25;;;;;;;;;;5053685;28;20029;-76
2021/04/16 15:26:28;;;;;;;9.32;8.02;;;;;;;;;;5067332;28;20017;-76
2021/04/16 15:29:06;;;;;;;10.65;7.30;;;;;;;;;;5063348;28;20060;-76
2021/04/16 15:31:36;;;;;;;9.07;7.65;;;;;;;;;;5055898;28;20102;-76
2021/04/16 15:47:54;;;;;;;8.90;7.77;;;;;;;;;;5052362;28;20123;-76
2021/04/16 15:50:32;;;;;;;10.23;7.70;;;;;;;;;;5052689;28;20424;-77
2021/04/16 15:52:57;;;;;;;12.65;8.05;;;;;;;;;;5065918;28;20036;-77
2021/04/16 15:55:23;;;;;;;9.52;8.20;;;;;;;;;;5054593;28;20017;-75
2021/04/16 15:57:49;;;;;;;11.02;8.07;;;;;;;;;;5072573;28;20511;-76
2021/04/16 16:00:19;;;;;;;10.95;8.27;;;;;;;;;;5072422;28;20086;-76
2021/04/16 16:02:44;;;;;;;10.90;8.20;;;;;;;;;;5063140;28;20505;-77
2021/04/16 16:05:10;;;;;;;8.73;7.80;;;;;;;;;;5055519;28;20143;-77
2021/04/16 16:07:36;;;;;;;10.20;7.32;;;;;;;;;;5061299;28;20032;-75
2021/04/16 16:10:02;;;;;;;9.68;7.80;;;;;;;;;;5079535;28;20096;-76
2021/04/16 16:12:27;;;;;;;9.13;7.13;;;;;;;;;;5081045;28;20452;-76
2021/04/16 16:14:59;;;;;;;8.30;6.78;;;;;;;;;;5076516;28;20028;-76
2021/04/16 16:17:32;;;;;;;8.32;7.32;;;;;;;;;;5073558;28;20025;-76
2021/04/16 16:19:57;;;;;;;10.15;7.90;;;;;;;;;;5035717;28;20036;-75
2021/04/16 16:22:23;;;;;;;10.52;7.78;;;;;;;;;;5055379;28;20021;-76
2021/04/16 16:24:48;;;;;;;9.38;7.63;;;;;;;;;;5065269;28;20029;-76
2021/04/16 16:27:19;;;;;;;8.18;6.80;;;;;;;;;;5052321;28;20029;-76
2021/04/16 16:29:49;;;;;;;7.80;6.18;;;;;;;;;;5034504;28;20025;-76
2021/04/16 16:32:18;;;;;;;8.13;6.43;;;;;;;;;;5051921;28;20053;-76
2021/04/16 16:34:43;;;;;;;8.13;6.03;;;;;;;;;;5051481;28;20028;-76
2021/04/16 16:37:15;;;;;;;10.07;5.97;;;;;;;;;;5052399;28;20040;-76
2021/04/16 16:39:41;;;;;;;9.63;6.22;;;;;;;;;;5052151;28;20282;-76
2021/04/16 16:42:07;;;;;;;6.68;5.47;;;;;;;;;;5050485;28;20151;-76
2021/04/16 16:44:36;;;;;;;8.23;6.18;;;;;;;;;;5051810;28;20035;-76
2021/04/16 16:47:03;;;;;;;8.00;6.25;;;;;;;;;;5051689;28;20087;-76
2021/04/16 16:49:29;;;;;;;9.07;5.95;;;;;;;;;;5052912;28;20151;-76
2021/04/16 16:51:55;;;;;;;7.30;5.60;;;;;;;;;;5057417;28;20122;-75
2021/04/16 16:54:21;;;;;;;6.95;4.97;;;;;;;;;;5070613;28;20020;-76
2021/04/16 16:56:51;;;;;;;8.55;6.85;;;;;;;;;;5057665;28;20401;-77
2021/04/16 16:59:23;;;;;;;11.15;7.10;;;;;;;;;;5066864;28;20033;-77
2021/04/16 17:01:48;;;;;;;7.25;6.55;;;;;;;;;;5059263;28;20044;-77
2021/04/16 17:04:14;;;;;;;9.55;6.30;;;;;;;;;;5062184;28;20021;-76
2021/04/16 17:06:39;;;;;;;10.13;5.63;;;;;;;;;;5064167;28;20017;-77
2021/04/16 17:09:06;;;;;;;9.35;7.78;;;;;;;;;;5057636;28;20430;-76